sensor_id;sensor_type;location;lat;lon;timestamp;pressure;altitude;pressure_sealevel;temperature;humidity
64521;BME280;50896;46.714;17.322;2023-02-20T00:00:37;101307.19;;;6.56;100.00
64521;BME280;50896;46.714;17.322;2023-02-20T00:03:05;101295.63;;;6.45;100.00
64521;BME280;50896;46.714;17.322;2023-02-20T00:05:33;101310.53;;;6.46;100.00
64521;BME280;50896;46.714;17.322;2023-02-20T00:07:59;101311.59;;;6.44;98.54
64521;BME280;50896;46.714;17.322;2023-02-20T00:10:27;101317.59;;;6.46;98.42
64521;BME280;50896;46.714;17.322;2023-02-20T00:12:54;101325.16;;;6.39;98.38
64521;BME280;50896;46.714;17.322;2023-02-20T00:15:21;101327.06;;;6.37;99.04
64521;BME280;50896;46.714;17.322;2023-02-20T00:17:48;101337.50;;;6.39;95.64
64521;BME280;50896;46.714;17.322;2023-02-20T00:20:21;101347.75;;;6.43;92.76
64521;BME280;50896;46.714;17.322;2023-02-20T00:22:49;101340.50;;;6.34;91.67
64521;BME280;50896;46.714;17.322;2023-02-20T00:25:16;101358.03;;;6.35;91.70
64521;BME280;50896;46.714;17.322;2023-02-20T00:27:44;101367.50;;;6.38;89.65
64521;BME280;50896;46.714;17.322;2023-02-20T00:30:18;101376.81;;;6.43;87.95
64521;BME280;50896;46.714;17.322;2023-02-20T00:32:47;101349.81;;;6.27;85.49
64521;BME280;50896;46.714;17.322;2023-02-20T00:35:14;101366.44;;;6.40;83.64
64521;BME280;50896;46.714;17.322;2023-02-20T00:37:42;101370.16;;;6.38;82.58
64521;BME280;50896;46.714;17.322;2023-02-20T00:40:10;101375.94;;;6.43;80.42
64521;BME280;50896;46.714;17.322;2023-02-20T00:42:37;101363.91;;;6.39;81.10
64521;BME280;50896;46.714;17.322;2023-02-20T00:45:05;101347.06;;;6.28;80.26
64521;BME280;50896;46.714;17.322;2023-02-20T00:47:32;101356.13;;;6.37;81.23
64521;BME280;50896;46.714;17.322;2023-02-20T00:50:00;101372.78;;;6.38;81.11
64521;BME280;50896;46.714;17.322;2023-02-20T00:52:26;101378.06;;;6.38;81.26
64521;BME280;50896;46.714;17.322;2023-02-20T00:54:54;101370.16;;;6.38;81.67
64521;BME280;50896;46.714;17.322;2023-02-20T00:57:20;101377.34;;;6.36;81.38
64521;BME280;50896;46.714;17.322;2023-02-20T00:59:48;101362.78;;;6.30;80.69
64521;BME280;50896;46.714;17.322;2023-02-20T01:02:16;101368.97;;;6.42;80.18
64521;BME280;50896;46.714;17.322;2023-02-20T01:04:43;101396.69;;;6.36;80.70
64521;BME280;50896;46.714;17.322;2023-02-20T01:07:10;101396.91;;;6.33;81.64
64521;BME280;50896;46.714;17.322;2023-02-20T01:09:37;101379.94;;;6.24;80.03
64521;BME280;50896;46.714;17.322;2023-02-20T01:12:04;101400.78;;;6.40;78.82
64521;BME280;50896;46.714;17.322;2023-02-20T01:14:31;101404.91;;;6.44;78.96
64521;BME280;50896;46.714;17.322;2023-02-20T01:17:00;101403.78;;;6.36;79.81
64521;BME280;50896;46.714;17.322;2023-02-20T01:19:27;101396.31;;;6.29;79.66
64521;BME280;50896;46.714;17.322;2023-02-20T01:21:54;101400.00;;;6.27;77.87
64521;BME280;50896;46.714;17.322;2023-02-20T01:24:21;101397.59;;;6.24;78.31
64521;BME280;50896;46.714;17.322;2023-02-20T01:26:48;101406.69;;;6.20;78.10
64521;BME280;50896;46.714;17.322;2023-02-20T01:29:16;101402.56;;;6.15;77.94
64521;BME280;50896;46.714;17.322;2023-02-20T01:31:50;101405.06;;;6.30;77.01
64521;BME280;50896;46.714;17.322;2023-02-20T01:34:19;101410.53;;;6.40;76.44
64521;BME280;50896;46.714;17.322;2023-02-20T01:36:48;101387.63;;;6.27;76.62
64521;BME280;50896;46.714;17.322;2023-02-20T01:39:18;101410.88;;;6.35;76.30
64521;BME280;50896;46.714;17.322;2023-02-20T01:41:46;101418.78;;;6.35;76.29
64521;BME280;50896;46.714;17.322;2023-02-20T01:44:28;101420.56;;;6.35;76.95
64521;BME280;50896;46.714;17.322;2023-02-20T01:46:56;101405.16;;;6.28;76.38
64521;BME280;50896;46.714;17.322;2023-02-20T01:49:37;101425.63;;;6.38;77.43
64521;BME280;50896;46.714;17.322;2023-02-20T01:54:42;101415.41;;;6.33;78.06
64521;BME280;50896;46.714;17.322;2023-02-20T01:57:18;101403.66;;;6.37;77.98
64521;BME280;50896;46.714;17.322;2023-02-20T01:59:46;101405.69;;;6.33;79.55
64521;BME280;50896;46.714;17.322;2023-02-20T02:02:15;101414.44;;;6.34;78.34
64521;BME280;50896;46.714;17.322;2023-02-20T02:04:43;101419.22;;;6.29;76.88
64521;BME280;50896;46.714;17.322;2023-02-20T02:07:10;101399.03;;;6.28;77.23
64521;BME280;50896;46.714;17.322;2023-02-20T02:09:43;101398.53;;;6.23;77.46
64521;BME280;50896;46.714;17.322;2023-02-20T02:12:13;101410.34;;;6.30;77.19
64521;BME280;50896;46.714;17.322;2023-02-20T02:14:40;101407.47;;;6.33;77.60
64521;BME280;50896;46.714;17.322;2023-02-20T02:39:23;101446.28;;;5.94;76.45
64521;BME280;50896;46.714;17.322;2023-02-20T02:42:05;101459.72;;;6.04;76.94
64521;BME280;50896;46.714;17.322;2023-02-20T02:44:41;101464.03;;;5.92;77.97
64521;BME280;50896;46.714;17.322;2023-02-20T02:52:26;101451.78;;;5.78;78.69
64521;BME280;50896;46.714;17.322;2023-02-20T02:55:22;101455.25;;;5.78;77.77
64521;BME280;50896;46.714;17.322;2023-02-20T02:57:52;101451.88;;;5.76;78.52
64521;BME280;50896;46.714;17.322;2023-02-20T03:00:29;101476.38;;;5.78;78.88
64521;BME280;50896;46.714;17.322;2023-02-20T03:03:15;101468.78;;;5.74;79.45
64521;BME280;50896;46.714;17.322;2023-02-20T03:05:56;101467.81;;;5.75;78.94
64521;BME280;50896;46.714;17.322;2023-02-20T03:08:39;101458.31;;;5.72;78.24
64521;BME280;50896;46.714;17.322;2023-02-20T03:11:19;101452.50;;;5.67;77.56
64521;BME280;50896;46.714;17.322;2023-02-20T03:16:43;101465.28;;;5.60;78.70
64521;BME280;50896;46.714;17.322;2023-02-20T03:19:13;101456.75;;;5.57;78.74
64521;BME280;50896;46.714;17.322;2023-02-20T03:21:44;101476.75;;;5.59;78.64
64521;BME280;50896;46.714;17.322;2023-02-20T03:24:15;101474.97;;;5.47;79.43
64521;BME280;50896;46.714;17.322;2023-02-20T03:26:47;101482.78;;;5.48;79.68
64521;BME280;50896;46.714;17.322;2023-02-20T03:29:33;101486.75;;;5.41;80.66
64521;BME280;50896;46.714;17.322;2023-02-20T03:32:04;101485.81;;;5.42;80.55
64521;BME280;50896;46.714;17.322;2023-02-20T03:34:52;101468.16;;;5.30;80.88
64521;BME280;50896;46.714;17.322;2023-02-20T03:37:42;101483.38;;;5.39;80.76
64521;BME280;50896;46.714;17.322;2023-02-20T03:40:29;101479.16;;;5.37;80.43
64521;BME280;50896;46.714;17.322;2023-02-20T03:43:20;101485.19;;;5.39;80.50
64521;BME280;50896;46.714;17.322;2023-02-20T03:45:47;101493.38;;;5.34;80.63
64521;BME280;50896;46.714;17.322;2023-02-20T03:48:27;101492.44;;;5.35;81.81
64521;BME280;50896;46.714;17.322;2023-02-20T03:50:57;101488.44;;;5.29;81.86
64521;BME280;50896;46.714;17.322;2023-02-20T03:53:28;101477.22;;;5.26;83.20
64521;BME280;50896;46.714;17.322;2023-02-20T03:55:57;101463.91;;;5.14;83.94
64521;BME280;50896;46.714;17.322;2023-02-20T03:58:26;101453.38;;;5.14;83.94
64521;BME280;50896;46.714;17.322;2023-02-20T04:00:57;101463.41;;;5.22;83.84
64521;BME280;50896;46.714;17.322;2023-02-20T04:03:29;101466.34;;;5.18;83.97
64521;BME280;50896;46.714;17.322;2023-02-20T04:05:57;101471.94;;;5.13;85.27
64521;BME280;50896;46.714;17.322;2023-02-20T04:08:36;101469.19;;;5.14;84.28
64521;BME280;50896;46.714;17.322;2023-02-20T04:11:09;101465.06;;;5.10;84.75
64521;BME280;50896;46.714;17.322;2023-02-20T04:13:38;101460.56;;;5.12;83.87
64521;BME280;50896;46.714;17.322;2023-02-20T04:16:07;101447.41;;;4.98;84.64
64521;BME280;50896;46.714;17.322;2023-02-20T04:18:36;101467.91;;;5.07;85.05
64521;BME280;50896;46.714;17.322;2023-02-20T04:21:09;101478.66;;;5.04;85.55
64521;BME280;50896;46.714;17.322;2023-02-20T04:23:42;101472.09;;;4.97;86.13
64521;BME280;50896;46.714;17.322;2023-02-20T04:26:16;101482.44;;;5.00;86.07
64521;BME280;50896;46.714;17.322;2023-02-20T04:28:45;101487.03;;;4.96;85.83
64521;BME280;50896;46.714;17.322;2023-02-20T04:31:16;101464.41;;;4.94;85.74
64521;BME280;50896;46.714;17.322;2023-02-20T04:33:44;101473.69;;;5.00;85.64
64521;BME280;50896;46.714;17.322;2023-02-20T04:36:22;101464.41;;;4.94;87.08
64521;BME280;50896;46.714;17.322;2023-02-20T04:38:50;101457.44;;;4.93;86.06
64521;BME280;50896;46.714;17.322;2023-02-20T04:41:22;101481.50;;;5.01;87.30
64521;BME280;50896;46.714;17.322;2023-02-20T04:43:49;101485.91;;;5.01;88.69
64521;BME280;50896;46.714;17.322;2023-02-20T04:46:16;101481.16;;;4.93;88.92
64521;BME280;50896;46.714;17.322;2023-02-20T04:48:43;101478.19;;;4.97;88.47
64521;BME280;50896;46.714;17.322;2023-02-20T04:51:10;101472.09;;;4.97;89.07
64521;BME280;50896;46.714;17.322;2023-02-20T04:53:37;101477.38;;;4.97;88.72
64521;BME280;50896;46.714;17.322;2023-02-20T04:56:04;101477.56;;;4.94;89.03
64521;BME280;50896;46.714;17.322;2023-02-20T04:58:33;101481.03;;;4.94;89.80
64521;BME280;50896;46.714;17.322;2023-02-20T05:01:12;101475.47;;;4.99;88.53
64521;BME280;50896;46.714;17.322;2023-02-20T05:03:39;101468.31;;;5.01;87.56
64521;BME280;50896;46.714;17.322;2023-02-20T05:06:06;101468.06;;;4.91;88.57
64521;BME280;50896;46.714;17.322;2023-02-20T05:08:33;101470.25;;;4.85;89.86
64521;BME280;50896;46.714;17.322;2023-02-20T05:10:59;101454.19;;;4.75;91.33
64521;BME280;50896;46.714;17.322;2023-02-20T05:13:26;101474.59;;;4.86;90.98
64521;BME280;50896;46.714;17.322;2023-02-20T05:15:53;101487.47;;;4.90;90.69
64521;BME280;50896;46.714;17.322;2023-02-20T05:18:24;101473.00;;;4.83;90.64
64521;BME280;50896;46.714;17.322;2023-02-20T05:20:51;101484.13;;;5.01;88.45
64521;BME280;50896;46.714;17.322;2023-02-20T05:23:37;101494.22;;;4.94;89.21
64521;BME280;50896;46.714;17.322;2023-02-20T05:26:11;101490.81;;;4.92;89.64
64521;BME280;50896;46.714;17.322;2023-02-20T05:28:39;101485.66;;;4.91;89.41
64521;BME280;50896;46.714;17.322;2023-02-20T05:31:05;101491.78;;;4.91;89.14
64521;BME280;50896;46.714;17.322;2023-02-20T05:33:32;101501.09;;;4.83;90.19
64521;BME280;50896;46.714;17.322;2023-02-20T05:35:59;101489.06;;;4.78;91.20
64521;BME280;50896;46.714;17.322;2023-02-20T05:38:26;101489.19;;;4.77;92.21
64521;BME280;50896;46.714;17.322;2023-02-20T05:40:53;101487.09;;;4.82;92.47
64521;BME280;50896;46.714;17.322;2023-02-20T05:43:20;101482.03;;;4.79;92.90
64521;BME280;50896;46.714;17.322;2023-02-20T05:45:47;101474.06;;;4.66;93.00
64521;BME280;50896;46.714;17.322;2023-02-20T05:48:14;101476.63;;;4.68;93.34
64521;BME280;50896;46.714;17.322;2023-02-20T05:50:41;101488.25;;;4.78;93.84
64521;BME280;50896;46.714;17.322;2023-02-20T05:53:16;101486.28;;;4.82;93.34
64521;BME280;50896;46.714;17.322;2023-02-20T05:55:43;101486.00;;;4.72;93.56
64521;BME280;50896;46.714;17.322;2023-02-20T05:58:09;101482.50;;;4.71;93.24
64521;BME280;50896;46.714;17.322;2023-02-20T06:00:36;101484.31;;;4.71;94.40
64521;BME280;50896;46.714;17.322;2023-02-20T06:03:07;101498.69;;;4.79;94.03
64521;BME280;50896;46.714;17.322;2023-02-20T06:05:35;101511.38;;;4.73;93.99
64521;BME280;50896;46.714;17.322;2023-02-20T06:08:02;101510.66;;;4.71;95.51
64521;BME280;50896;46.714;17.322;2023-02-20T06:10:30;101517.72;;;4.70;94.73
64521;BME280;50896;46.714;17.322;2023-02-20T06:12:57;101527.41;;;4.70;96.18
64521;BME280;50896;46.714;17.322;2023-02-20T06:15:24;101524.47;;;4.74;95.74
64521;BME280;50896;46.714;17.322;2023-02-20T06:17:51;101531.53;;;4.74;96.17
64521;BME280;50896;46.714;17.322;2023-02-20T06:20:18;101532.47;;;4.73;94.89
64521;BME280;50896;46.714;17.322;2023-02-20T06:22:47;101535.97;;;4.73;96.23
64521;BME280;50896;46.714;17.322;2023-02-20T06:25:14;101536.16;;;4.70;96.55
64521;BME280;50896;46.714;17.322;2023-02-20T06:27:41;101540.47;;;4.71;95.90
64521;BME280;50896;46.714;17.322;2023-02-20T06:30:09;101550.91;;;4.73;96.03
64521;BME280;50896;46.714;17.322;2023-02-20T06:32:36;101555.25;;;4.74;98.03
64521;BME280;50896;46.714;17.322;2023-02-20T06:35:03;101551.56;;;4.76;96.15
64521;BME280;50896;46.714;17.322;2023-02-20T06:37:30;101556.00;;;4.76;96.75
64521;BME280;50896;46.714;17.322;2023-02-20T06:39:58;101561.06;;;4.79;97.25
64521;BME280;50896;46.714;17.322;2023-02-20T06:42:25;101566.44;;;4.77;97.93
64521;BME280;50896;46.714;17.322;2023-02-20T06:44:52;101562.38;;;4.86;97.39
64521;BME280;50896;46.714;17.322;2023-02-20T06:47:19;101546.88;;;4.82;96.23
64521;BME280;50896;46.714;17.322;2023-02-20T06:49:45;101543.84;;;4.88;96.50
64521;BME280;50896;46.714;17.322;2023-02-20T06:52:13;101551.78;;;5.01;96.57
64521;BME280;50896;46.714;17.322;2023-02-20T06:54:40;101559.97;;;5.10;95.00
64521;BME280;50896;46.714;17.322;2023-02-20T06:57:06;101553.16;;;5.21;93.04
64521;BME280;50896;46.714;17.322;2023-02-20T06:59:33;101552.66;;;5.28;93.51
64521;BME280;50896;46.714;17.322;2023-02-20T07:02:11;101558.06;;;5.40;91.84
64521;BME280;50896;46.714;17.322;2023-02-20T07:04:38;101542.13;;;5.41;89.92
64521;BME280;50896;46.714;17.322;2023-02-20T07:07:05;101553.09;;;5.62;87.51
64521;BME280;50896;46.714;17.322;2023-02-20T07:09:32;101559.31;;;5.74;85.37
64521;BME280;50896;46.714;17.322;2023-02-20T07:11:59;101554.69;;;5.78;86.05
64521;BME280;50896;46.714;17.322;2023-02-20T07:14:26;101559.06;;;5.92;83.53
64521;BME280;50896;46.714;17.322;2023-02-20T07:16:52;101555.63;;;6.04;81.70
64521;BME280;50896;46.714;17.322;2023-02-20T07:19:19;101562.16;;;6.11;81.02
64521;BME280;50896;46.714;17.322;2023-02-20T07:21:46;101555.59;;;6.17;82.14
64521;BME280;50896;46.714;17.322;2023-02-20T07:24:13;101539.56;;;6.07;80.56
64521;BME280;50896;46.714;17.322;2023-02-20T07:26:40;101539.75;;;6.17;81.01
64521;BME280;50896;46.714;17.322;2023-02-20T07:29:07;101558.97;;;6.32;80.77
64521;BME280;50896;46.714;17.322;2023-02-20T07:31:34;101557.06;;;6.34;78.61
64521;BME280;50896;46.714;17.322;2023-02-20T07:34:01;101542.16;;;6.46;77.79
64521;BME280;50896;46.714;17.322;2023-02-20T07:36:33;101537.19;;;6.41;76.90
64521;BME280;50896;46.714;17.322;2023-02-20T07:39:01;101556.41;;;6.56;75.89
64521;BME280;50896;46.714;17.322;2023-02-20T07:41:30;101544.28;;;6.54;76.02
64521;BME280;50896;46.714;17.322;2023-02-20T07:44:04;101550.84;;;6.48;77.65
64521;BME280;50896;46.714;17.322;2023-02-20T07:46:31;101558.41;;;6.53;77.45
64521;BME280;50896;46.714;17.322;2023-02-20T07:49:04;101548.50;;;6.56;77.41
64521;BME280;50896;46.714;17.322;2023-02-20T07:51:31;101535.28;;;6.56;75.83
64521;BME280;50896;46.714;17.322;2023-02-20T07:53:58;101542.53;;;6.65;76.04
64521;BME280;50896;46.714;17.322;2023-02-20T07:56:25;101539.03;;;6.78;75.81
64521;BME280;50896;46.714;17.322;2023-02-20T07:58:52;101550.06;;;6.72;75.11
64521;BME280;50896;46.714;17.322;2023-02-20T08:01:19;101539.06;;;6.65;75.70
64521;BME280;50896;46.714;17.322;2023-02-20T08:03:46;101549.81;;;6.75;75.78
64521;BME280;50896;46.714;17.322;2023-02-20T08:06:16;101542.19;;;6.83;75.45
64521;BME280;50896;46.714;17.322;2023-02-20T08:08:47;101534.56;;;6.91;74.19
64521;BME280;50896;46.714;17.322;2023-02-20T08:11:18;101549.13;;;6.97;73.85
64521;BME280;50896;46.714;17.322;2023-02-20T08:13:45;101549.75;;;7.00;74.57
64521;BME280;50896;46.714;17.322;2023-02-20T08:16:12;101543.84;;;6.97;74.67
64521;BME280;50896;46.714;17.322;2023-02-20T08:18:39;101539.56;;;7.07;75.01
64521;BME280;50896;46.714;17.322;2023-02-20T08:21:06;101535.03;;;7.09;75.51
64521;BME280;50896;46.714;17.322;2023-02-20T08:23:33;101527.31;;;7.06;75.17
64521;BME280;50896;46.714;17.322;2023-02-20T08:26:03;101521.84;;;7.21;73.85
64521;BME280;50896;46.714;17.322;2023-02-20T08:28:30;101516.69;;;7.19;74.43
64521;BME280;50896;46.714;17.322;2023-02-20T08:30:57;101509.06;;;7.14;74.75
64521;BME280;50896;46.714;17.322;2023-02-20T08:33:23;101498.88;;;7.21;75.29
64521;BME280;50896;46.714;17.322;2023-02-20T08:35:50;101483.63;;;7.25;74.26
64521;BME280;50896;46.714;17.322;2023-02-20T08:38:36;101492.59;;;7.46;73.85
64521;BME280;50896;46.714;17.322;2023-02-20T08:41:08;101488.41;;;7.44;73.49
64521;BME280;50896;46.714;17.322;2023-02-20T08:43:37;101486.22;;;7.49;73.38
64521;BME280;50896;46.714;17.322;2023-02-20T08:46:05;101478.69;;;7.56;72.78
64521;BME280;50896;46.714;17.322;2023-02-20T08:48:33;101484.59;;;7.59;73.06
64521;BME280;50896;46.714;17.322;2023-02-20T08:51:00;101476.78;;;7.58;72.81
64521;BME280;50896;46.714;17.322;2023-02-20T08:53:27;101471.81;;;7.53;72.93
64521;BME280;50896;46.714;17.322;2023-02-20T08:55:53;101483.63;;;7.72;72.74
64521;BME280;50896;46.714;17.322;2023-02-20T08:58:22;101485.22;;;7.74;72.81
64521;BME280;50896;46.714;17.322;2023-02-20T09:00:50;101478.97;;;7.86;72.20
64521;BME280;50896;46.714;17.322;2023-02-20T09:03:17;101485.47;;;7.82;73.43
64521;BME280;50896;46.714;17.322;2023-02-20T09:05:44;101481.25;;;7.80;73.23
64521;BME280;50896;46.714;17.322;2023-02-20T09:08:12;101484.28;;;7.86;74.60
64521;BME280;50896;46.714;17.322;2023-02-20T09:10:39;101473.94;;;7.95;74.06
64521;BME280;50896;46.714;17.322;2023-02-20T09:13:06;101471.91;;;8.10;72.63
64521;BME280;50896;46.714;17.322;2023-02-20T09:15:33;101471.53;;;8.14;72.86
64521;BME280;50896;46.714;17.322;2023-02-20T09:18:11;101454.94;;;8.12;72.45
64521;BME280;50896;46.714;17.322;2023-02-20T09:20:39;101468.16;;;8.35;70.28
64521;BME280;50896;46.714;17.322;2023-02-20T09:23:07;101477.81;;;8.47;69.41
64521;BME280;50896;46.714;17.322;2023-02-20T09:25:34;101469.88;;;8.47;70.16
64521;BME280;50896;46.714;17.322;2023-02-20T09:28:01;101448.66;;;8.36;70.47
64521;BME280;50896;46.714;17.322;2023-02-20T09:30:28;101473.44;;;8.58;70.50
64521;BME280;50896;46.714;17.322;2023-02-20T09:32:55;101479.47;;;8.71;69.53
64521;BME280;50896;46.714;17.322;2023-02-20T09:35:27;101469.56;;;8.73;69.84
64521;BME280;50896;46.714;17.322;2023-02-20T09:37:54;101459.19;;;8.81;69.66
64521;BME280;50896;46.714;17.322;2023-02-20T09:40:23;101466.13;;;8.94;69.29
64521;BME280;50896;46.714;17.322;2023-02-20T09:46:19;101457.66;;;9.11;70.10
64521;BME280;50896;46.714;17.322;2023-02-20T09:51:35;101445.97;;;9.23;69.47
64521;BME280;50896;46.714;17.322;2023-02-20T09:54:13;101441.13;;;9.29;69.65
64521;BME280;50896;46.714;17.322;2023-02-20T09:56:49;101443.03;;;9.38;70.54
64521;BME280;50896;46.714;17.322;2023-02-20T09:59:21;101437.47;;;9.41;70.42
64521;BME280;50896;46.714;17.322;2023-02-20T10:01:56;101434.59;;;9.54;70.84
64521;BME280;50896;46.714;17.322;2023-02-20T10:04:47;101424.03;;;9.64;69.82
64521;BME280;50896;46.714;17.322;2023-02-20T10:07:32;101419.91;;;9.81;68.87
64521;BME280;50896;46.714;17.322;2023-02-20T10:13:01;101391.28;;;9.84;69.34
64521;BME280;50896;46.714;17.322;2023-02-20T10:18:18;101395.03;;;10.22;67.79
64521;BME280;50896;46.714;17.322;2023-02-20T10:23:53;101392.09;;;10.25;68.36
64521;BME280;50896;46.714;17.322;2023-02-20T10:26:35;101388.53;;;10.36;67.56
64521;BME280;50896;46.714;17.322;2023-02-20T10:29:24;101380.41;;;10.38;69.22
64521;BME280;50896;46.714;17.322;2023-02-20T10:34:44;101374.88;;;10.51;67.94
64521;BME280;50896;46.714;17.322;2023-02-20T10:37:19;101360.03;;;10.68;67.10
64521;BME280;50896;46.714;17.322;2023-02-20T10:40:26;101361.16;;;10.85;66.95
64521;BME280;50896;46.714;17.322;2023-02-20T10:45:53;101351.59;;;11.02;66.89
64521;BME280;50896;46.714;17.322;2023-02-20T10:48:25;101335.50;;;10.93;65.63
64521;BME280;50896;46.714;17.322;2023-02-20T10:53:44;101331.69;;;11.16;65.46
64521;BME280;50896;46.714;17.322;2023-02-20T10:59:19;101317.91;;;11.30;65.12
64521;BME280;50896;46.714;17.322;2023-02-20T11:01:53;101299.25;;;11.40;64.91
64521;BME280;50896;46.714;17.322;2023-02-20T11:04:26;101306.22;;;11.78;63.75
64521;BME280;50896;46.714;17.322;2023-02-20T11:07:00;101278.22;;;11.74;63.33
64521;BME280;50896;46.714;17.322;2023-02-20T11:09:28;101301.97;;;12.13;62.79
64521;BME280;50896;46.714;17.322;2023-02-20T11:11:55;101299.00;;;12.17;62.59
64521;BME280;50896;46.714;17.322;2023-02-20T11:14:33;101305.28;;;12.43;61.00
64521;BME280;50896;46.714;17.322;2023-02-20T11:17:16;101274.03;;;12.54;60.80
64521;BME280;50896;46.714;17.322;2023-02-20T11:19:52;101276.75;;;12.62;60.69
64521;BME280;50896;46.714;17.322;2023-02-20T11:22:43;101293.22;;;13.02;59.71
64521;BME280;50896;46.714;17.322;2023-02-20T11:25:17;101297.31;;;13.14;57.66
64521;BME280;50896;46.714;17.322;2023-02-20T11:27:49;101289.47;;;13.81;56.23
64521;BME280;50896;46.714;17.322;2023-02-20T11:30:37;101274.38;;;14.40;53.81
64521;BME280;50896;46.714;17.322;2023-02-20T11:35:38;101241.75;;;16.04;49.02
64521;BME280;50896;46.714;17.322;2023-02-20T11:43:31;101242.66;;;19.62;40.16
64521;BME280;50896;46.714;17.322;2023-02-20T11:46:18;101240.38;;;23.18;33.65
64521;BME280;50896;46.714;17.322;2023-02-20T11:49:05;101243.75;;;24.66;30.63
64521;BME280;50896;46.714;17.322;2023-02-20T11:51:43;101223.72;;;24.96;29.83
64521;BME280;50896;46.714;17.322;2023-02-20T11:54:37;101234.94;;;25.64;28.54
64521;BME280;50896;46.714;17.322;2023-02-20T11:57:24;101215.09;;;25.51;28.53
64521;BME280;50896;46.714;17.322;2023-02-20T12:00:12;101195.28;;;25.27;28.76
64521;BME280;50896;46.714;17.322;2023-02-20T12:03:09;101193.19;;;23.68;30.55
64521;BME280;50896;46.714;17.322;2023-02-20T12:05:41;101192.00;;;22.02;33.29
64521;BME280;50896;46.714;17.322;2023-02-20T12:11:25;101178.56;;;19.09;38.69
64521;BME280;50896;46.714;17.322;2023-02-20T12:13:56;101188.63;;;18.09;41.65
64521;BME280;50896;46.714;17.322;2023-02-20T12:27:01;101167.41;;;15.04;50.13
64521;BME280;50896;46.714;17.322;2023-02-20T12:29:47;101152.84;;;15.07;50.11
64521;BME280;50896;46.714;17.322;2023-02-20T12:37:49;101141.97;;;14.35;52.47
64521;BME280;50896;46.714;17.322;2023-02-20T12:45:34;101123.78;;;13.73;53.50
64521;BME280;50896;46.714;17.322;2023-02-20T12:48:28;101127.91;;;13.51;55.21
64521;BME280;50896;46.714;17.322;2023-02-20T12:53:42;101120.38;;;13.55;55.25
64521;BME280;50896;46.714;17.322;2023-02-20T12:56:26;101115.22;;;13.61;55.16
64521;BME280;50896;46.714;17.322;2023-02-20T12:59:03;101110.56;;;13.55;56.05
64521;BME280;50896;46.714;17.322;2023-02-20T13:01:33;101103.03;;;13.59;55.92
64521;BME280;50896;46.714;17.322;2023-02-20T13:04:18;101089.69;;;13.59;56.07
64521;BME280;50896;46.714;17.322;2023-02-20T13:07:04;101098.38;;;13.61;55.57
64521;BME280;50896;46.714;17.322;2023-02-20T13:09:35;101061.63;;;13.46;55.72
64521;BME280;50896;46.714;17.322;2023-02-20T13:12:13;101070.31;;;13.57;55.90
64521;BME280;50896;46.714;17.322;2023-02-20T13:15:11;101076.31;;;13.67;55.35
64521;BME280;50896;46.714;17.322;2023-02-20T13:18:13;101074.00;;;13.72;55.28
64521;BME280;50896;46.714;17.322;2023-02-20T13:20:49;101067.31;;;13.68;53.32
64521;BME280;50896;46.714;17.322;2023-02-20T13:25:49;101071.31;;;13.72;53.84
64521;BME280;50896;46.714;17.322;2023-02-20T13:28:36;101058.13;;;13.62;53.30
64521;BME280;50896;46.714;17.322;2023-02-20T13:49:55;101042.78;;;13.48;52.71
64521;BME280;50896;46.714;17.322;2023-02-20T13:52:38;101023.56;;;13.61;52.34
64521;BME280;50896;46.714;17.322;2023-02-20T14:00:33;101026.59;;;13.58;51.24
64521;BME280;50896;46.714;17.322;2023-02-20T14:03:29;100994.19;;;13.44;51.00
64521;BME280;50896;46.714;17.322;2023-02-20T14:08:33;101005.53;;;13.55;52.50
64521;BME280;50896;46.714;17.322;2023-02-20T14:13:32;100985.78;;;13.31;54.82
64521;BME280;50896;46.714;17.322;2023-02-20T14:19:32;101000.19;;;13.71;53.75
64521;BME280;50896;46.714;17.322;2023-02-20T14:22:32;100994.81;;;13.79;54.26
64521;BME280;50896;46.714;17.322;2023-02-20T14:27:31;100965.44;;;13.79;54.00
64521;BME280;50896;46.714;17.322;2023-02-20T14:30:06;100969.59;;;13.82;54.62
64521;BME280;50896;46.714;17.322;2023-02-20T14:32:35;100942.56;;;13.60;54.43
64521;BME280;50896;46.714;17.322;2023-02-20T14:40:42;100971.13;;;13.68;57.11
64521;BME280;50896;46.714;17.322;2023-02-20T14:43:16;100950.25;;;13.72;57.48
64521;BME280;50896;46.714;17.322;2023-02-20T14:45:44;100931.75;;;13.45;58.37
64521;BME280;50896;46.714;17.322;2023-02-20T14:48:26;100947.28;;;13.50;58.78
64521;BME280;50896;46.714;17.322;2023-02-20T14:51:14;100957.78;;;13.43;59.58
64521;BME280;50896;46.714;17.322;2023-02-20T14:53:43;100958.13;;;13.40;60.28
64521;BME280;50896;46.714;17.322;2023-02-20T14:56:17;100948.28;;;13.41;60.15
64521;BME280;50896;46.714;17.322;2023-02-20T14:58:45;100923.56;;;13.22;60.17
64521;BME280;50896;46.714;17.322;2023-02-20T15:04:00;100925.22;;;13.15;61.27
64521;BME280;50896;46.714;17.322;2023-02-20T15:06:28;100933.22;;;12.98;62.60
64521;BME280;50896;46.714;17.322;2023-02-20T15:08:57;100938.53;;;12.90;62.55
64521;BME280;50896;46.714;17.322;2023-02-20T15:11:29;100955.22;;;12.76;63.75
64521;BME280;50896;46.714;17.322;2023-02-20T15:13:57;100959.69;;;12.67;63.96
64521;BME280;50896;46.714;17.322;2023-02-20T15:16:31;100946.97;;;12.53;64.12
64521;BME280;50896;46.714;17.322;2023-02-20T15:19:01;100932.44;;;12.47;63.67
64521;BME280;50896;46.714;17.322;2023-02-20T15:24:26;100925.78;;;12.51;63.25
64521;BME280;50896;46.714;17.322;2023-02-20T15:26:53;100936.28;;;12.53;63.84
64521;BME280;50896;46.714;17.322;2023-02-20T15:29:31;100929.09;;;12.37;64.35
64521;BME280;50896;46.714;17.322;2023-02-20T15:32:01;100911.38;;;12.27;64.64
64521;BME280;50896;46.714;17.322;2023-02-20T15:34:34;100891.91;;;12.27;64.38